Time;durP1;ratioP1;P1;durP2;ratioP2;P2;SDS_P1;SDS_P2;PMS_P1;PMS_P2;Temp;Humidity;BMP_temperature;BMP_pressure;BME280_temperature;BME280_humidity;BME280_pressure;Samples;Min_cycle;Max_cycle;Signal;HPM_P1;HPM_P2
2022/02/27 00:00:55;;;;;;;3.60;2.80;;;;;18.80;102151.00;;;;2054708;28;20211;-51
2022/02/27 00:01:56;;;;;;;3.33;3.03;;;;;18.80;102151.00;;;;2055105;28;20219;-50
2022/02/27 00:02:57;;;;;;;3.10;2.80;;;;;18.80;102148.00;;;;2055018;28;20298;-51
2022/02/27 00:03:57;;;;;;;3.40;2.57;;;;;18.80;102155.00;;;;2054960;28;20250;-51
2022/02/27 00:04:57;;;;;;;3.33;3.03;;;;;18.80;102153.00;;;;2055022;28;20219;-50
2022/02/27 00:05:58;;;;;;;3.70;3.27;;;;;18.80;102157.00;;;;2055192;28;20619;-51
2022/02/27 00:06:58;;;;;;;3.83;2.90;;;;;18.80;102151.00;;;;2048932;28;20917;-51
2022/02/27 00:07:58;;;;;;;3.60;2.77;;;;;18.80;102156.00;;;;2055089;28;20302;-51
2022/02/27 00:08:59;;;;;;;3.87;3.13;;;;;18.80;102146.00;;;;2056022;28;20211;-51
2022/02/27 00:09:59;;;;;;;4.13;2.90;;;;;18.80;102158.00;;;;2055087;28;20219;-50
2022/02/27 00:10:59;;;;;;;3.50;2.80;;;;;18.80;102154.00;;;;2060945;28;20226;-51
2022/02/27 00:12:00;;;;;;;4.50;3.00;;;;;18.80;102143.00;;;;2062842;28;20297;-51
2022/02/27 00:13:00;;;;;;;3.43;3.10;;;;;18.80;102144.00;;;;2054846;28;20211;-51
2022/02/27 00:14:00;;;;;;;3.53;2.70;;;;;18.80;102147.00;;;;2055519;28;20226;-51
2022/02/27 00:15:01;;;;;;;3.23;2.93;;;;;18.80;102152.00;;;;2062862;28;20599;-51
2022/02/27 00:16:01;;;;;;;3.87;3.20;;;;;18.80;102148.00;;;;2062490;28;20235;-55
2022/02/27 00:17:02;;;;;;;3.90;2.87;;;;;18.80;102152.00;;;;2055104;28;20304;-54
2022/02/27 00:18:02;;;;;;;3.27;2.97;;;;;18.80;102154.00;;;;2054246;28;20224;-51
2022/02/27 00:19:02;;;;;;;3.20;2.90;;;;;18.80;102157.00;;;;2054358;28;20208;-51
2022/02/27 00:20:04;;;;;;;3.90;3.27;;;;;18.70;102154.00;;;;2054925;28;20288;-51
2022/02/27 00:21:04;;;;;;;4.05;3.28;;;;;18.70;102150.00;;;;2061108;28;20207;-51
2022/02/27 00:22:04;;;;;;;4.40;3.10;;;;;18.80;102152.00;;;;2054683;28;20298;-52
2022/02/27 00:23:05;;;;;;;3.37;2.90;;;;;18.80;102142.00;;;;2054711;28;20207;-51
2022/02/27 00:24:06;;;;;;;3.10;2.80;;;;;18.70;102142.00;;;;2053806;28;20218;-51
2022/02/27 00:25:07;;;;;;;3.87;2.97;;;;;18.70;102148.00;;;;2055088;28;20234;-51
2022/02/27 00:26:07;;;;;;;3.85;2.78;;;;;18.80;102147.00;;;;2054222;28;20466;-50
2022/02/27 00:27:08;;;;;;;3.83;2.80;;;;;18.80;102144.00;;;;2054340;28;20792;-50
2022/02/27 00:28:08;;;;;;;2.80;2.40;;;;;18.70;102143.00;;;;2054769;28;20219;-51
2022/02/27 00:29:08;;;;;;;4.70;3.30;;;;;18.70;102142.00;;;;2054985;28;20287;-51
2022/02/27 00:30:09;;;;;;;3.90;2.83;;;;;18.70;102146.00;;;;2062928;28;20207;-50
2022/02/27 00:31:09;;;;;;;3.70;2.90;;;;;18.70;102146.00;;;;2062405;28;20691;-51
2022/02/27 00:32:10;;;;;;;3.30;3.00;;;;;18.70;102146.00;;;;2062890;28;20481;-50
2022/02/27 00:33:10;;;;;;;3.33;2.80;;;;;18.70;102146.00;;;;2062693;28;20727;-52
2022/02/27 00:34:11;;;;;;;4.00;3.27;;;;;18.70;102145.00;;;;2055000;28;20291;-51
2022/02/27 00:35:11;;;;;;;3.20;2.90;;;;;18.70;102146.00;;;;2054971;28;20223;-51
2022/02/27 00:36:11;;;;;;;4.33;3.10;;;;;18.70;102136.00;;;;2054623;28;20595;-51
2022/02/27 00:37:11;;;;;;;4.70;3.03;;;;;18.70;102137.00;;;;2055030;28;20561;-51
2022/02/27 00:38:13;;;;;;;3.20;2.80;;;;;18.70;102138.00;;;;2062236;28;20641;-51
2022/02/27 00:39:13;;;;;;;3.15;2.55;;;;;18.70;102141.00;;;;2054930;28;20208;-50
2022/02/27 00:40:13;;;;;;;3.80;3.00;;;;;18.70;102145.00;;;;2060957;28;20226;-50
2022/02/27 00:41:14;;;;;;;3.90;2.60;;;;;18.70;102138.00;;;;2062327;28;20225;-51
2022/02/27 00:42:14;;;;;;;4.43;3.33;;;;;18.70;102143.00;;;;2062028;28;20222;-51
2022/02/27 00:43:14;;;;;;;3.60;3.00;;;;;18.70;102142.00;;;;2062215;28;20568;-51
2022/02/27 00:44:15;;;;;;;4.77;3.43;;;;;18.70;102135.00;;;;2062217;28;20614;-51
2022/02/27 00:45:15;;;;;;;3.73;3.03;;;;;18.70;102141.00;;;;2062309;28;20658;-51
2022/02/27 00:46:16;;;;;;;3.00;2.70;;;;;18.70;102143.00;;;;2062130;28;20222;-51
2022/02/27 00:47:16;;;;;;;3.40;2.80;;;;;18.70;102146.00;;;;2062579;28;20225;-51
2022/02/27 00:48:16;;;;;;;3.40;3.10;;;;;18.70;102132.00;;;;2056715;28;20298;-51
2022/02/27 00:49:17;;;;;;;3.30;2.80;;;;;18.70;102136.00;;;;2061056;28;20706;-51
2022/02/27 00:50:17;;;;;;;3.30;3.00;;;;;18.70;102146.00;;;;2061900;28;21192;-51
2022/02/27 00:51:17;;;;;;;3.90;3.33;;;;;18.70;102141.00;;;;2062364;28;20215;-50
2022/02/27 00:52:22;;;;;;;3.83;3.23;;;;;18.70;102143.00;;;;2062056;28;20278;-51
2022/02/27 00:53:22;;;;;;;3.70;3.00;;;;;18.70;102139.00;;;;2062538;28;20233;-51
2022/02/27 00:54:23;;;;;;;3.57;2.77;;;;;18.70;102133.00;;;;2062791;28;20218;-51
2022/02/27 00:55:23;;;;;;;3.40;2.90;;;;;18.70;102141.00;;;;2062780;28;20920;-51
2022/02/27 00:56:23;;;;;;;2.80;2.60;;;;;18.70;102132.00;;;;2062871;28;20727;-51
2022/02/27 00:57:24;;;;;;;3.20;2.90;;;;;18.70;102140.00;;;;2062789;28;20214;-51
2022/02/27 00:58:24;;;;;;;3.37;2.83;;;;;18.70;102141.00;;;;2062225;28;20722;-51
2022/02/27 00:59:24;;;;;;;3.10;2.80;;;;;18.70;102147.00;;;;2062640;28;20215;-51
2022/02/27 01:00:25;;;;;;;3.40;3.10;;;;;18.70;102142.00;;;;2062340;28;20222;-50
2022/02/27 01:01:25;;;;;;;4.17;3.40;;;;;18.70;102143.00;;;;2062959;28;20237;-51
2022/02/27 01:02:25;;;;;;;3.30;2.70;;;;;18.60;102138.00;;;;2062837;28;20215;-51
2022/02/27 01:03:26;;;;;;;3.57;2.90;;;;;18.70;102140.00;;;;2053947;28;20219;-51
2022/02/27 01:04:26;;;;;;;4.00;3.30;;;;;18.70;102136.00;;;;2056311;28;20265;-51
2022/02/27 01:05:26;;;;;;;3.97;3.30;;;;;18.70;102140.00;;;;2060422;28;20578;-51
2022/02/27 01:06:27;;;;;;;4.07;3.03;;;;;18.70;102132.00;;;;2058201;28;20676;-51
2022/02/27 01:07:27;;;;;;;3.47;2.80;;;;;18.70;102137.00;;;;2062480;28;20986;-50
2022/02/27 01:08:27;;;;;;;3.40;3.10;;;;;18.70;102134.00;;;;2062527;28;20593;-51
2022/02/27 01:09:28;;;;;;;3.67;3.17;;;;;18.70;102138.00;;;;2056669;28;20223;-51
2022/02/27 01:10:28;;;;;;;3.33;3.00;;;;;18.60;102137.00;;;;2054448;28;20231;-51
2022/02/27 01:11:30;;;;;;;3.80;3.00;;;;;18.70;102135.00;;;;2054768;28;20569;-51
2022/02/27 01:12:30;;;;;;;3.00;2.70;;;;;18.70;102126.00;;;;2055069;28;20246;-51
2022/02/27 01:13:30;;;;;;;3.43;2.60;;;;;18.70;102131.00;;;;2054520;28;20294;-51
2022/02/27 01:14:31;;;;;;;3.13;2.83;;;;;18.70;102137.00;;;;2054668;28;20683;-51
2022/02/27 01:15:31;;;;;;;3.77;2.90;;;;;18.70;102134.00;;;;2054615;28;20243;-51
2022/02/27 01:16:31;;;;;;;3.90;3.20;;;;;18.70;102136.00;;;;2057362;28;20214;-51
2022/02/27 01:17:32;;;;;;;2.73;2.47;;;;;18.70;102131.00;;;;2054828;28;20242;-51
2022/02/27 01:18:33;;;;;;;3.83;3.23;;;;;18.60;102132.00;;;;2057434;28;20222;-51
2022/02/27 01:19:34;;;;;;;3.47;2.73;;;;;18.60;102138.00;;;;2062527;28;20277;-51
2022/02/27 01:20:34;;;;;;;3.30;2.97;;;;;18.60;102132.00;;;;2061851;28;20564;-51
2022/02/27 01:21:35;;;;;;;3.63;3.33;;;;;18.60;102137.00;;;;2062716;28;20222;-51
2022/02/27 01:22:35;;;;;;;3.93;2.70;;;;;18.60;102135.00;;;;2062724;28;20250;-51
2022/02/27 01:23:35;;;;;;;2.83;2.63;;;;;18.60;102135.00;;;;2062338;28;20293;-51
2022/02/27 01:24:36;;;;;;;4.00;3.30;;;;;18.60;102132.00;;;;2054495;28;20255;-51
2022/02/27 01:25:36;;;;;;;4.10;2.93;;;;;18.60;102132.00;;;;2054595;28;20239;-51
2022/02/27 01:26:37;;;;;;;4.10;3.37;;;;;18.60;102139.00;;;;2054802;28;20299;-51
2022/02/27 01:27:37;;;;;;;3.63;3.33;;;;;18.60;102128.00;;;;2054809;28;20207;-51
2022/02/27 01:28:37;;;;;;;3.97;3.20;;;;;18.60;102132.00;;;;2057926;28;20237;-51
2022/02/27 01:29:38;;;;;;;4.60;3.30;;;;;18.60;102132.00;;;;2061996;28;20266;-50
2022/02/27 01:30:38;;;;;;;4.30;3.07;;;;;18.60;102126.00;;;;2061937;28;20219;-51
2022/02/27 01:31:38;;;;;;;3.90;3.00;;;;;18.60;102127.00;;;;2059487;28;20212;-50
2022/02/27 01:32:40;;;;;;;3.03;2.73;;;;;18.60;102135.00;;;;2054620;28;20664;-51
2022/02/27 01:33:40;;;;;;;2.70;2.40;;;;;18.60;102128.00;;;;2054390;28;20215;-51
2022/02/27 01:34:40;;;;;;;2.97;2.67;;;;;18.60;102132.00;;;;2054649;28;20638;-51
2022/02/27 01:35:41;;;;;;;3.97;3.23;;;;;18.60;102133.00;;;;2054550;28;20235;-51
2022/02/27 01:36:41;;;;;;;3.80;3.27;;;;;18.60;102138.00;;;;2054571;28;20227;-51
2022/02/27 01:37:41;;;;;;;3.73;2.90;;;;;18.60;102137.00;;;;2054660;28;20216;-51
2022/02/27 01:38:42;;;;;;;4.00;3.20;;;;;18.60;102128.00;;;;2054611;28;20232;-51
2022/02/27 01:39:42;;;;;;;6.07;3.77;;;;;18.60;102133.00;;;;2054645;28;20212;-51
2022/02/27 01:40:42;;;;;;;3.50;2.83;;;;;18.60;102132.00;;;;2054058;28;20219;-51
2022/02/27 01:41:43;;;;;;;3.40;2.70;;;;;18.60;102132.00;;;;2054408;28;20215;-51
2022/02/27 01:42:43;;;;;;;3.13;2.83;;;;;18.60;102133.00;;;;2054726;28;20219;-51
2022/02/27 01:43:43;;;;;;;4.13;3.00;;;;;18.60;102137.00;;;;2057697;28;20270;-51
2022/02/27 01:44:44;;;;;;;4.07;3.20;;;;;18.60;102131.00;;;;2054582;28;20307;-51
2022/02/27 01:45:44;;;;;;;3.27;2.97;;;;;18.60;102132.00;;;;2054429;28;20685;-55
2022/02/27 01:47:04;;;;;;;5.20;3.23;;;;;18.60;102134.00;;;;2054737;28;20212;-53
2022/02/27 01:48:04;;;;;;;4.30;3.38;;;;;18.60;102140.00;;;;2059435;28;20663;-51
2022/02/27 01:49:05;;;;;;;4.40;3.30;;;;;18.60;102135.00;;;;2056888;28;20227;-51
2022/02/27 01:50:05;;;;;;;3.37;2.93;;;;;18.60;102138.00;;;;2054627;28;20754;-51
2022/02/27 01:51:06;;;;;;;3.17;2.77;;;;;18.60;102135.00;;;;2053941;28;20656;-51
2022/02/27 01:52:06;;;;;;;3.63;3.03;;;;;18.60;102137.00;;;;2054720;28;20685;-51
2022/02/27 01:53:07;;;;;;;3.73;3.00;;;;;18.50;102138.00;;;;2054327;28;20848;-51
2022/02/27 01:54:07;;;;;;;3.23;2.93;;;;;18.60;102121.00;;;;2053933;28;20224;-51
2022/02/27 01:55:08;;;;;;;4.07;2.67;;;;;18.60;102129.00;;;;2054605;28;20318;-50
2022/02/27 01:56:08;;;;;;;3.87;2.87;;;;;18.60;102131.00;;;;2053994;28;20223;-51
2022/02/27 01:57:09;;;;;;;4.50;3.57;;;;;18.60;102133.00;;;;2057068;28;20223;-50
2022/02/27 01:58:09;;;;;;;4.05;2.85;;;;;18.60;102128.00;;;;2064854;28;20648;-50
2022/02/27 01:59:10;;;;;;;3.40;2.37;;;;;18.60;102130.00;;;;2070016;28;20210;-51
2022/02/27 02:00:11;;;;;;;3.03;2.73;;;;;18.60;102122.00;;;;2061773;28;20207;-51
2022/02/27 02:01:11;;;;;;;3.38;2.88;;;;;18.60;102132.00;;;;2061405;28;20211;-51
2022/02/27 02:02:12;;;;;;;4.13;3.00;;;;;18.60;102139.00;;;;2062530;28;20222;-51
2022/02/27 02:03:12;;;;;;;3.60;3.20;;;;;18.60;102133.00;;;;2062249;28;20298;-51
2022/02/27 02:04:13;;;;;;;4.70;3.40;;;;;18.60;102134.00;;;;2062298;28;20711;-51
2022/02/27 02:05:13;;;;;;;2.60;2.40;;;;;18.60;102133.00;;;;2062589;28;20862;-51
2022/02/27 02:06:13;;;;;;;4.10;2.97;;;;;18.60;102140.00;;;;2059931;28;20226;-51
2022/02/27 02:07:14;;;;;;;3.50;2.80;;;;;18.60;102138.00;;;;2060704;28;20214;-51
2022/02/27 02:08:14;;;;;;;3.83;3.30;;;;;18.60;102136.00;;;;2061516;28;20215;-51
2022/02/27 02:09:15;;;;;;;3.20;2.90;;;;;18.60;102144.00;;;;2072572;28;20222;-50
2022/02/27 02:10:15;;;;;;;3.10;2.80;;;;;18.50;102139.00;;;;2067283;28;20225;-50
2022/02/27 02:11:16;;;;;;;2.97;2.73;;;;;18.60;102141.00;;;;2062082;28;20289;-51
2022/02/27 02:12:16;;;;;;;3.37;2.70;;;;;18.60;102142.00;;;;2063465;28;20221;-51
2022/02/27 02:13:16;;;;;;;3.70;3.00;;;;;18.60;102143.00;;;;2054701;28;20227;-51
2022/02/27 02:14:17;;;;;;;4.10;2.93;;;;;18.60;102130.00;;;;2054967;28;20251;-50
2022/02/27 02:15:17;;;;;;;3.13;2.80;;;;;18.50;102130.00;;;;2056072;28;20227;-51
2022/02/27 02:16:17;;;;;;;3.67;2.80;;;;;18.60;102097.00;;;;2057808;28;20586;-51
2022/02/27 02:17:18;;;;;;;3.17;2.87;;;;;18.60;102142.00;;;;2060603;28;20616;-51
2022/02/27 02:18:18;;;;;;;3.33;2.70;;;;;18.50;102129.00;;;;2063934;28;20598;-50
2022/02/27 02:19:20;;;;;;;3.53;3.23;;;;;18.50;102128.00;;;;2060455;28;20301;-51
2022/02/27 02:20:21;;;;;;;4.68;3.05;;;;;18.50;102054.00;;;;2063322;28;20310;-51
2022/02/27 02:21:21;;;;;;;3.23;2.93;;;;;18.50;102129.00;;;;2055990;28;20726;-52
2022/02/27 02:22:22;;;;;;;3.70;2.70;;;;;18.60;102131.00;;;;2063723;28;20269;-51
2022/02/27 02:23:22;;;;;;;4.00;2.90;;;;;18.50;102133.00;;;;2063715;28;20226;-51
2022/02/27 02:24:22;;;;;;;3.93;2.90;;;;;18.50;102120.00;;;;2063458;28;20309;-50
2022/02/27 02:25:23;;;;;;;2.87;2.60;;;;;18.50;102135.00;;;;2062993;28;20226;-51
2022/02/27 02:26:23;;;;;;;4.17;3.03;;;;;18.50;102131.00;;;;2055945;28;20699;-51
2022/02/27 02:27:23;;;;;;;2.80;2.50;;;;;18.50;102126.00;;;;2055922;28;20235;-51
2022/02/27 02:28:24;;;;;;;4.10;3.57;;;;;18.60;102125.00;;;;2055739;28;20772;-51
2022/02/27 02:29:24;;;;;;;4.63;3.17;;;;;18.50;102132.00;;;;2055874;28;20868;-51
2022/02/27 02:30:25;;;;;;;3.97;3.00;;;;;18.50;102116.00;;;;2055420;28;20696;-50
2022/02/27 02:31:25;;;;;;;3.67;2.93;;;;;18.50;102128.00;;;;2055731;28;20226;-51
2022/02/27 02:32:25;;;;;;;3.80;3.40;;;;;18.50;102118.00;;;;2055967;28;20215;-51
2022/02/27 02:33:33;;;;;;;3.60;3.30;;;;;18.50;102129.00;;;;2055600;28;20211;-51
2022/02/27 02:34:34;;;;;;;3.17;2.80;;;;;18.50;102122.00;;;;2055566;28;20275;-50
2022/02/27 02:35:34;;;;;;;3.37;3.00;;;;;18.50;102119.00;;;;2055987;28;20723;-51
2022/02/27 02:36:35;;;;;;;3.20;2.90;;;;;18.50;102127.00;;;;2055423;28;20722;-51
2022/02/27 02:37:35;;;;;;;3.10;2.80;;;;;18.50;102118.00;;;;2055190;28;20220;-51
2022/02/27 02:38:35;;;;;;;3.67;2.97;;;;;18.50;102126.00;;;;2054906;28;20211;-51
2022/02/27 02:39:35;;;;;;;2.90;2.60;;;;;18.50;102121.00;;;;2054953;28;20212;-51
2022/02/27 02:40:36;;;;;;;3.67;3.20;;;;;18.50;102122.00;;;;2054736;28;20223;-51
2022/02/27 02:41:36;;;;;;;3.00;2.80;;;;;18.50;102119.00;;;;2055356;28;20212;-51
2022/02/27 02:42:40;;;;;;;4.70;2.80;;;;;18.50;102117.00;;;;2055152;28;20211;-51
2022/02/27 02:43:41;;;;;;;3.80;3.25;;;;;18.50;102116.00;;;;2054842;28;20211;-50
2022/02/27 02:44:41;;;;;;;4.00;3.10;;;;;18.50;102120.00;;;;2055664;28;20253;-51
2022/02/27 02:45:41;;;;;;;3.90;3.10;;;;;18.50;102102.00;;;;2055749;28;20326;-50
2022/02/27 02:46:42;;;;;;;4.27;2.97;;;;;18.50;102062.00;;;;2060881;28;20747;-51
2022/02/27 02:47:46;;;;;;;3.70;2.97;;;;;18.50;102114.00;;;;2071177;28;20202;-50
2022/02/27 02:48:46;;;;;;;2.92;2.63;;;;;18.50;102107.00;;;;2070588;28;20710;-51
2022/02/27 02:49:47;;;;;;;3.20;2.90;;;;;18.50;102116.00;;;;2062431;28;20215;-51
2022/02/27 02:50:47;;;;;;;3.83;3.00;;;;;18.50;102112.00;;;;2063246;28;20736;-50
2022/02/27 02:51:47;;;;;;;3.17;2.87;;;;;18.50;102112.00;;;;2062633;28;20298;-51
2022/02/27 02:52:48;;;;;;;3.67;3.00;;;;;18.50;102109.00;;;;2058863;28;20296;-51
2022/02/27 02:53:48;;;;;;;3.50;2.90;;;;;18.50;102103.00;;;;2075810;28;20229;-50
2022/02/27 02:54:49;;;;;;;4.20;3.20;;;;;18.50;102104.00;;;;2079225;28;20221;-50
2022/02/27 02:55:49;;;;;;;2.97;2.67;;;;;18.50;102103.00;;;;2063690;28;20306;-50
2022/02/27 02:56:50;;;;;;;3.70;3.00;;;;;18.50;102101.00;;;;2063587;28;20225;-50
2022/02/27 02:57:50;;;;;;;3.27;2.90;;;;;18.50;102106.00;;;;2063529;28;20231;-50
2022/02/27 02:58:50;;;;;;;3.40;2.80;;;;;18.50;102097.00;;;;2062929;28;20719;-51
2022/02/27 02:59:51;;;;;;;3.93;2.90;;;;;18.50;102095.00;;;;2062964;28;20803;-51
2022/02/27 03:00:51;;;;;;;3.33;2.83;;;;;18.50;102103.00;;;;2062111;28;20218;-51
2022/02/27 03:01:51;;;;;;;4.13;2.90;;;;;18.50;102101.00;;;;2055566;28;20208;-51
2022/02/27 03:02:52;;;;;;;4.23;3.23;;;;;18.50;102098.00;;;;2055534;28;20281;-50
2022/02/27 03:03:52;;;;;;;3.10;2.80;;;;;18.40;102095.00;;;;2061645;28;20222;-50
2022/02/27 03:04:53;;;;;;;3.30;2.80;;;;;18.50;102102.00;;;;2055662;28;20223;-50
2022/02/27 03:05:53;;;;;;;3.80;3.33;;;;;18.40;102096.00;;;;2054823;28;20313;-51
2022/02/27 03:06:53;;;;;;;3.80;3.37;;;;;18.40;102091.00;;;;2055631;28;20220;-51
2022/02/27 03:07:54;;;;;;;3.40;2.80;;;;;18.40;102089.00;;;;2055481;28;20220;-51
2022/02/27 03:08:54;;;;;;;3.30;3.00;;;;;18.40;102097.00;;;;2056942;28;20689;-51
2022/02/27 03:09:54;;;;;;;3.47;2.90;;;;;18.40;102092.00;;;;2055511;28;20216;-51
2022/02/27 03:10:55;;;;;;;2.87;2.57;;;;;18.40;102091.00;;;;2055132;28;20215;-51
2022/02/27 03:11:55;;;;;;;3.03;2.73;;;;;18.50;102088.00;;;;2055987;28;20282;-51
2022/02/27 03:12:56;;;;;;;3.07;2.77;;;;;18.40;102095.00;;;;2056485;28;20223;-51
2022/02/27 03:14:00;;;;;;;3.50;2.97;;;;;18.40;102094.00;;;;2055256;28;20227;-50
2022/02/27 03:15:01;;;;;;;4.15;3.40;;;;;18.40;102090.00;;;;2052204;28;20584;-50
2022/02/27 03:16:02;;;;;;;2.93;2.63;;;;;18.40;102087.00;;;;2055000;28;20224;-51
2022/02/27 03:17:02;;;;;;;3.30;3.00;;;;;18.40;102096.00;;;;2062658;28;20238;-51
2022/02/27 03:18:02;;;;;;;3.20;2.90;;;;;18.40;102091.00;;;;2062778;28;20222;-51
2022/02/27 03:19:03;;;;;;;4.50;2.73;;;;;18.40;102091.00;;;;2055410;28;20757;-51
2022/02/27 03:20:04;;;;;;;2.87;2.60;;;;;18.40;102091.00;;;;2055461;28;20207;-51
2022/02/27 03:21:05;;;;;;;2.72;2.33;;;;;18.40;102096.00;;;;2054816;28;20680;-50
2022/02/27 03:22:05;;;;;;;3.30;3.00;;;;;18.40;102079.00;;;;2055895;28;20227;-51
2022/02/27 03:23:06;;;;;;;3.57;3.07;;;;;18.40;102094.00;;;;2063434;28;20213;-50
2022/02/27 03:24:06;;;;;;;3.23;2.87;;;;;18.40;102088.00;;;;2062931;28;20225;-51
2022/02/27 03:25:07;;;;;;;2.80;2.60;;;;;18.40;102088.00;;;;2055620;28;20274;-50
2022/02/27 03:26:07;;;;;;;3.10;2.80;;;;;18.40;102094.00;;;;2054650;28;20215;-51
2022/02/27 03:27:07;;;;;;;3.40;3.00;;;;;18.40;102088.00;;;;2055359;28;20850;-51
2022/02/27 03:28:08;;;;;;;3.27;2.70;;;;;18.40;102087.00;;;;2055248;28;20230;-51
2022/02/27 03:29:08;;;;;;;3.50;3.03;;;;;18.40;102090.00;;;;2055356;28;20220;-51
2022/02/27 03:30:09;;;;;;;2.93;2.63;;;;;18.40;102088.00;;;;2055099;28;20212;-51
2022/02/27 03:31:09;;;;;;;3.80;2.90;;;;;18.40;102091.00;;;;2054935;28;20258;-51
2022/02/27 03:32:09;;;;;;;3.83;2.60;;;;;18.40;102091.00;;;;2056541;28;20667;-50
2022/02/27 03:33:10;;;;;;;4.27;3.10;;;;;18.40;102089.00;;;;2063294;28;20812;-51
2022/02/27 03:34:10;;;;;;;2.83;2.53;;;;;18.40;102089.00;;;;2063047;28;20215;-50
2022/02/27 03:35:10;;;;;;;4.00;2.97;;;;;18.40;102089.00;;;;2063213;28;20219;-51
2022/02/27 03:36:11;;;;;;;3.90;2.83;;;;;18.40;102086.00;;;;2063079;28;20250;-51
2022/02/27 03:37:11;;;;;;;3.03;2.70;;;;;18.40;102086.00;;;;2063310;28;20281;-51
2022/02/27 03:38:12;;;;;;;2.90;2.53;;;;;18.40;102093.00;;;;2063367;28;20237;-51
2022/02/27 03:39:12;;;;;;;3.10;2.80;;;;;18.40;102090.00;;;;2062699;28;20226;-51
2022/02/27 03:40:12;;;;;;;3.30;2.57;;;;;18.40;102092.00;;;;2063122;28;20230;-51
2022/02/27 03:41:13;;;;;;;3.30;3.00;;;;;18.40;102082.00;;;;2056767;28;20224;-50
2022/02/27 03:42:13;;;;;;;3.17;2.87;;;;;18.40;102090.00;;;;2055294;28;20211;-51
2022/02/27 03:43:14;;;;;;;3.10;2.80;;;;;18.40;102079.00;;;;2055191;28;20216;-50
2022/02/27 03:44:14;;;;;;;3.20;2.90;;;;;18.40;102079.00;;;;2054481;28;20220;-51
2022/02/27 03:45:14;;;;;;;3.87;3.20;;;;;18.40;102078.00;;;;2057428;28;20931;-51
2022/02/27 03:46:15;;;;;;;3.13;2.87;;;;;18.40;102075.00;;;;2062800;28;20721;-51
2022/02/27 03:47:15;;;;;;;3.50;2.93;;;;;18.40;102074.00;;;;2062407;28;20219;-51
2022/02/27 03:48:15;;;;;;;2.83;2.37;;;;;18.40;102079.00;;;;2062522;28;20219;-51
2022/02/27 03:49:16;;;;;;;3.10;2.80;;;;;18.40;102084.00;;;;2061185;28;20219;-50
2022/02/27 03:50:17;;;;;;;3.00;2.70;;;;;18.40;102082.00;;;;2061710;28;20218;-50
2022/02/27 03:51:17;;;;;;;3.22;2.90;;;;;18.40;102088.00;;;;2062078;28;20221;-51
2022/02/27 03:52:17;;;;;;;4.00;3.30;;;;;18.40;102091.00;;;;2062469;28;20211;-51
2022/02/27 03:53:18;;;;;;;3.93;2.97;;;;;18.40;102086.00;;;;2061520;28;20229;-51
2022/02/27 03:54:20;;;;;;;2.43;2.23;;;;;18.40;102080.00;;;;2061513;28;20230;-51
2022/02/27 03:55:20;;;;;;;3.25;2.95;;;;;18.40;102075.00;;;;2062667;28;20269;-50
2022/02/27 03:56:20;;;;;;;3.37;3.07;;;;;18.30;102074.00;;;;2062647;28;20210;-51
2022/02/27 03:57:21;;;;;;;4.30;3.03;;;;;18.40;102075.00;;;;2062456;28;20222;-51
2022/02/27 03:58:21;;;;;;;2.80;2.47;;;;;18.40;102073.00;;;;2056782;28;20640;-51
2022/02/27 03:59:21;;;;;;;2.80;2.60;;;;;18.40;102078.00;;;;2058884;28;20247;-50
2022/02/27 04:00:22;;;;;;;3.20;2.90;;;;;18.40;102076.00;;;;2054685;28;20212;-51
2022/02/27 04:01:22;;;;;;;4.40;3.10;;;;;18.40;102078.00;;;;2055053;28;20230;-51
2022/02/27 04:02:22;;;;;;;4.00;2.97;;;;;18.40;102075.00;;;;2055085;28;20243;-51
2022/02/27 04:03:23;;;;;;;3.33;2.97;;;;;18.40;102080.00;;;;2055210;28;20586;-51
2022/02/27 04:04:23;;;;;;;3.40;3.07;;;;;18.30;102082.00;;;;2054790;28;20224;-51
2022/02/27 04:05:23;;;;;;;3.23;2.63;;;;;18.40;102080.00;;;;2054974;28;20235;-51
2022/02/27 04:06:24;;;;;;;3.47;3.17;;;;;18.30;102083.00;;;;2055158;28;20216;-50
2022/02/27 04:07:24;;;;;;;3.20;2.90;;;;;18.30;102082.00;;;;2053541;28;22242;-51
2022/02/27 04:08:24;;;;;;;3.67;2.80;;;;;18.30;102079.00;;;;2055618;28;20250;-51
2022/02/27 04:09:25;;;;;;;4.03;2.87;;;;;18.30;102079.00;;;;2054709;28;20220;-50
2022/02/27 04:10:25;;;;;;;4.00;2.83;;;;;18.30;102072.00;;;;2061955;28;21721;-50
2022/02/27 04:11:26;;;;;;;3.57;2.83;;;;;18.30;102085.00;;;;2061792;28;20219;-51
2022/02/27 04:12:26;;;;;;;2.77;2.57;;;;;18.30;102087.00;;;;2057926;28;20220;-51
2022/02/27 04:13:27;;;;;;;3.50;3.20;;;;;18.30;102084.00;;;;2057413;28;20208;-51
2022/02/27 04:14:27;;;;;;;3.07;2.77;;;;;18.30;102087.00;;;;2054390;28;20235;-51
2022/02/27 04:15:27;;;;;;;3.50;2.90;;;;;18.30;102083.00;;;;2054474;28;20216;-51
2022/02/27 04:16:28;;;;;;;3.10;2.80;;;;;18.30;102085.00;;;;2054547;28;20208;-50
2022/02/27 04:17:28;;;;;;;3.00;2.67;;;;;18.30;102084.00;;;;2054519;28;20215;-51
2022/02/27 04:18:28;;;;;;;2.83;2.53;;;;;18.40;102092.00;;;;2054652;28;20227;-51
2022/02/27 04:19:29;;;;;;;2.90;2.70;;;;;18.30;102083.00;;;;2054570;28;20221;-51
2022/02/27 04:20:29;;;;;;;3.40;2.70;;;;;18.30;102087.00;;;;2054149;28;20219;-51
2022/02/27 04:21:30;;;;;;;3.13;2.63;;;;;18.30;102088.00;;;;2054343;28;20216;-51
2022/02/27 04:22:30;;;;;;;3.70;3.10;;;;;18.40;102092.00;;;;2054280;28;20772;-51
2022/02/27 04:23:30;;;;;;;3.47;3.17;;;;;18.30;102097.00;;;;2053316;28;20226;-51
2022/02/27 04:24:30;;;;;;;3.50;3.03;;;;;18.30;102089.00;;;;2054428;28;20219;-51
2022/02/27 04:25:31;;;;;;;2.87;2.63;;;;;18.30;102091.00;;;;2058337;28;20308;-51
2022/02/27 04:26:31;;;;;;;3.13;2.80;;;;;18.30;102087.00;;;;2062555;28;20274;-51
2022/02/27 04:27:31;;;;;;;3.40;2.73;;;;;18.30;102079.00;;;;2062332;28;20207;-51
2022/02/27 04:28:32;;;;;;;4.07;2.90;;;;;18.30;102087.00;;;;2062157;28;20265;-51
2022/02/27 04:29:32;;;;;;;3.47;3.00;;;;;18.30;102084.00;;;;2062161;28;20219;-51
2022/02/27 04:30:32;;;;;;;3.07;2.77;;;;;18.30;102086.00;;;;2061992;28;20219;-51
2022/02/27 04:31:33;;;;;;;3.00;2.70;;;;;18.30;102088.00;;;;2062227;28;20249;-51
2022/02/27 04:32:33;;;;;;;4.33;3.00;;;;;18.30;102090.00;;;;2062009;28;20237;-50
2022/02/27 04:33:33;;;;;;;3.90;2.80;;;;;18.30;102094.00;;;;2062205;28;20249;-51
2022/02/27 04:34:34;;;;;;;2.90;2.70;;;;;18.30;102078.00;;;;2061826;28;20227;-51
2022/02/27 04:35:34;;;;;;;4.00;2.97;;;;;18.30;102086.00;;;;2062418;28;20211;-51
2022/02/27 04:36:35;;;;;;;2.80;2.60;;;;;18.30;102086.00;;;;2062368;28;20207;-51
2022/02/27 04:37:36;;;;;;;3.77;2.87;;;;;18.30;102083.00;;;;2062379;28;20223;-51
2022/02/27 04:38:37;;;;;;;3.92;2.92;;;;;18.30;102078.00;;;;2058083;28;20275;-51
2022/02/27 04:39:37;;;;;;;3.97;3.10;;;;;18.30;102084.00;;;;2054076;28;20324;-51
2022/02/27 04:40:37;;;;;;;3.43;2.60;;;;;18.30;102086.00;;;;2053575;28;20239;-50
2022/02/27 04:41:40;;;;;;;3.20;2.90;;;;;18.30;102078.00;;;;2054221;28;20759;-51
2022/02/27 04:42:41;;;;;;;3.17;2.70;;;;;18.30;102083.00;;;;2054384;28;20218;-51
2022/02/27 04:43:41;;;;;;;3.15;2.80;;;;;18.30;102088.00;;;;2053610;28;20219;-53
2022/02/27 04:44:42;;;;;;;2.93;2.57;;;;;18.30;102088.00;;;;2054463;28;20984;-52
2022/02/27 04:45:42;;;;;;;2.90;2.33;;;;;18.30;102090.00;;;;2054683;28;20246;-52
2022/02/27 04:46:42;;;;;;;3.93;3.00;;;;;18.30;102090.00;;;;2054759;28;20291;-51
2022/02/27 04:47:43;;;;;;;4.10;3.13;;;;;18.30;102091.00;;;;2054262;28;20922;-52
2022/02/27 04:48:43;;;;;;;3.20;2.90;;;;;18.30;102087.00;;;;2053058;28;20208;-52
2022/02/27 04:49:43;;;;;;;3.07;2.77;;;;;18.30;102088.00;;;;2054831;28;20226;-51
2022/02/27 04:50:44;;;;;;;3.03;2.73;;;;;18.30;102090.00;;;;2054280;28;20243;-52
2022/02/27 04:51:44;;;;;;;3.47;2.77;;;;;18.30;102086.00;;;;2054856;28;20270;-51
2022/02/27 04:52:45;;;;;;;4.20;3.00;;;;;18.30;102078.00;;;;2053955;28;20211;-50
2022/02/27 04:53:47;;;;;;;4.57;2.97;;;;;18.30;102086.00;;;;2052119;28;20297;-51
2022/02/27 04:54:47;;;;;;;4.43;2.75;;;;;18.30;102093.00;;;;2054591;28;20195;-51
2022/02/27 04:55:47;;;;;;;2.93;2.63;;;;;18.30;102087.00;;;;2054749;28;20223;-51
2022/02/27 04:56:48;;;;;;;2.80;2.60;;;;;18.30;102079.00;;;;2054137;28;20227;-51
2022/02/27 04:57:48;;;;;;;3.43;3.03;;;;;18.30;102092.00;;;;2045982;28;20204;-51
2022/02/27 04:58:48;;;;;;;3.13;2.83;;;;;18.30;102084.00;;;;2053043;28;20215;-51
2022/02/27 04:59:49;;;;;;;3.17;2.87;;;;;18.30;102076.00;;;;2054802;28;20266;-50